createdAt,value
2022-12-24T00:01:08.096Z,95525.81
2022-12-24T00:03:37.154Z,95521.97
2022-12-24T00:06:05.545Z,95527.56
2022-12-24T00:08:33.038Z,95538.81
2022-12-24T00:11:00.621Z,95526.66
2022-12-24T00:13:28.203Z,95527.28
2022-12-24T00:15:55.715Z,95526.25
2022-12-24T00:18:24.574Z,95515.44
2022-12-24T00:20:52.131Z,95524.72
2022-12-24T00:23:20.327Z,95527.09
2022-12-24T00:25:47.979Z,95523.41
2022-12-24T00:28:16.454Z,95524.63
2022-12-24T00:30:44.448Z,95528.66
2022-12-24T00:33:12.030Z,95518.56
2022-12-24T00:35:41.921Z,95528.38
2022-12-24T00:38:09.933Z,95539.22
2022-12-24T00:40:37.548Z,95544.50
2022-12-24T00:43:05.091Z,95515.75
2022-12-24T00:45:32.592Z,95554.41
2022-12-24T00:48:00.094Z,95541.38
2022-12-24T00:50:27.592Z,95561.72
2022-12-24T00:52:56.428Z,95562.97
2022-12-24T00:55:23.905Z,95567.16
2022-12-24T00:57:51.441Z,95567.44
2022-12-24T01:00:19.460Z,95562.72
2022-12-24T01:02:47.257Z,95547.75
2022-12-24T01:05:14.059Z,95552.66
2022-12-24T01:07:43.875Z,95560.28
2022-12-24T01:10:19.011Z,95556.69
2022-12-24T01:12:47.510Z,95556.22
2022-12-24T01:15:16.269Z,95546.09
2022-12-24T01:17:43.976Z,95555.41
2022-12-24T01:20:16.137Z,95573.53
2022-12-24T01:22:43.803Z,95571.47
2022-12-24T01:25:12.987Z,95584.53
2022-12-24T01:27:40.536Z,95594.03
2022-12-24T01:30:09.964Z,95593.78
2022-12-24T01:32:37.670Z,95599.34
2022-12-24T01:35:05.833Z,95616.59
2022-12-24T01:37:33.335Z,95629.84
2022-12-24T01:40:14.761Z,95618.72
2022-12-24T01:43:05.401Z,95634.16
2022-12-24T01:45:46.040Z,95631.50
2022-12-24T01:48:18.918Z,95643.78
2022-12-24T01:50:46.798Z,95659.50
2022-12-24T01:53:16.051Z,95636.81
2022-12-24T01:55:46.290Z,95627.09
2022-12-24T01:58:18.155Z,95629.16
2022-12-24T02:00:46.167Z,95629.84
2022-12-24T02:03:14.038Z,95636.63
2022-12-24T02:05:48.189Z,95640.88
2022-12-24T02:08:16.863Z,95638.34
2022-12-24T02:10:44.457Z,95642.69
2022-12-24T02:13:13.332Z,95646.53
2022-12-24T02:15:57.033Z,95663.91
2022-12-24T02:18:30.924Z,95663.78
2022-12-24T02:21:22.695Z,95662.94
2022-12-24T02:24:15.490Z,95684.66
2022-12-24T02:27:08.912Z,95685.47
2022-12-24T02:30:00.055Z,95680.63
2022-12-24T02:32:35.165Z,95669.44
2022-12-24T02:35:10.815Z,95678.22
2022-12-24T02:37:40.990Z,95678.72
2022-12-24T02:40:16.531Z,95687.00
2022-12-24T02:42:49.921Z,95689.16
2022-12-24T02:45:22.823Z,95699.28
2022-12-24T02:47:52.680Z,95695.94
2022-12-24T02:50:20.702Z,95694.97
2022-12-24T02:52:48.945Z,95704.91
2022-12-24T02:55:20.857Z,95701.09
2022-12-24T02:58:06.851Z,95722.75
2022-12-24T03:00:46.215Z,95710.84
2022-12-24T03:03:34.544Z,95710.50
2022-12-24T03:06:09.239Z,95715.81
2022-12-24T03:08:44.943Z,95713.00
2022-12-24T03:11:14.360Z,95711.84
2022-12-24T03:13:43.360Z,95712.31
2022-12-24T03:16:16.120Z,95729.53
2022-12-24T03:18:47.062Z,95737.31
2022-12-24T03:21:19.057Z,95736.66
2022-12-24T03:23:46.604Z,95749.56
2022-12-24T03:26:17.167Z,95732.66
2022-12-24T03:28:45.527Z,95740.28
2022-12-24T03:31:14.828Z,95743.56
2022-12-24T03:33:43.142Z,95742.94
2022-12-24T03:36:11.906Z,95745.25
2022-12-24T03:38:39.451Z,95740.25
2022-12-24T03:41:07.700Z,95747.56
2022-12-24T03:43:35.604Z,95746.59
2022-12-24T03:46:05.588Z,95745.59
2022-12-24T03:48:36.506Z,95751.03
2022-12-24T03:51:04.438Z,95759.63
2022-12-24T03:53:31.924Z,95752.84
2022-12-24T03:55:59.485Z,95751.53
2022-12-24T03:58:27.017Z,95759.13
2022-12-24T04:00:54.770Z,95766.91
2022-12-24T04:03:22.414Z,95766.91
2022-12-24T04:06:01.754Z,95775.34
2022-12-24T04:08:29.265Z,95779.31
2022-12-24T04:10:56.800Z,95782.94
2022-12-24T04:13:24.320Z,95780.59
2022-12-24T04:15:59.127Z,95785.50
2022-12-24T04:18:26.732Z,95790.13
2022-12-24T04:20:56.167Z,95795.06
2022-12-24T04:23:24.671Z,95798.31
2022-12-24T04:25:52.434Z,95806.72
2022-12-24T04:28:19.953Z,95805.44
2022-12-24T04:30:47.467Z,95795.31
2022-12-24T04:33:14.954Z,95802.00
2022-12-24T04:35:42.991Z,95791.88
2022-12-24T04:38:11.874Z,95803.16
2022-12-24T04:40:39.386Z,95801.16
2022-12-24T04:43:07.121Z,95809.28
2022-12-24T04:45:34.647Z,95801.81
2022-12-24T04:48:02.142Z,95809.25
2022-12-24T04:50:29.649Z,95810.28
2022-12-24T04:52:57.117Z,95808.91
2022-12-24T04:55:25.943Z,95816.06
2022-12-24T04:57:53.519Z,95815.41
2022-12-24T05:00:21.552Z,95816.72
2022-12-24T05:02:49.280Z,95803.47
2022-12-24T05:05:17.020Z,95820.34
2022-12-24T05:07:44.526Z,95827.94
2022-12-24T05:10:12.329Z,95824.81
2022-12-24T05:12:41.147Z,95825.63
2022-12-24T05:15:09.476Z,95830.94
2022-12-24T05:17:36.969Z,95828.63
2022-12-24T05:20:05.371Z,95827.94
2022-12-24T05:22:50.476Z,95833.44
2022-12-24T05:25:35.660Z,95839.16
2022-12-24T05:28:04.531Z,95839.16
2022-12-24T05:30:32.118Z,95837.66
2022-12-24T05:32:59.746Z,95839.16
2022-12-24T05:35:27.242Z,95844.63
2022-12-24T05:37:58.641Z,95847.13
2022-12-24T05:40:26.251Z,95848.44
2022-12-24T05:42:53.802Z,95839.34
2022-12-24T05:45:22.634Z,95847.28
2022-12-24T05:47:50.134Z,95866.94
2022-12-24T05:50:17.758Z,95861.47
2022-12-24T05:52:45.241Z,95862.31
2022-12-24T05:55:12.719Z,95869.50
2022-12-24T05:57:41.317Z,95875.78
2022-12-24T06:00:10.436Z,95869.00
2022-12-24T06:02:39.362Z,95881.22
2022-12-24T06:05:07.349Z,95887.53
2022-12-24T06:07:35.600Z,95879.28
2022-12-24T06:10:03.118Z,95887.53
2022-12-24T06:12:30.633Z,95890.72
2022-12-24T06:14:58.102Z,95891.38
2022-12-24T06:17:25.591Z,95884.56
2022-12-24T06:19:54.394Z,95897.16
2022-12-24T06:22:21.893Z,95879.94
2022-12-24T06:24:49.388Z,95898.78
2022-12-24T06:27:16.883Z,95907.03
2022-12-24T06:29:44.373Z,95903.91
2022-12-24T06:32:11.882Z,95907.06
2022-12-24T06:34:39.386Z,95896.50
2022-12-24T06:37:08.384Z,95898.13
2022-12-24T06:39:35.861Z,95905.09
2022-12-24T06:42:03.352Z,95909.41
2022-12-24T06:44:30.818Z,95917.31
2022-12-24T06:46:58.661Z,95922.81
2022-12-24T06:49:26.191Z,95933.75
2022-12-24T06:51:53.717Z,95940.38
2022-12-24T06:54:22.538Z,95934.06
2022-12-24T06:56:50.009Z,95940.50
2022-12-24T06:59:17.494Z,95947.94
2022-12-24T07:01:45.093Z,95946.44
2022-12-24T07:04:19.663Z,95953.25
2022-12-24T07:06:48.455Z,95953.44
2022-12-24T07:09:15.953Z,95961.63
2022-12-24T07:11:44.761Z,95966.19
2022-12-24T07:14:12.257Z,95974.28
2022-12-24T07:16:39.911Z,95978.19
2022-12-24T07:19:07.489Z,95982.84
2022-12-24T07:21:34.990Z,95980.56
2022-12-24T07:24:02.505Z,95980.84
2022-12-24T07:26:30.047Z,95982.66
2022-12-24T07:28:59.002Z,95987.03
2022-12-24T07:31:26.520Z,95988.00
2022-12-24T07:33:54.315Z,95991.53
2022-12-24T07:36:23.143Z,95999.91
2022-12-24T07:38:51.003Z,96004.44
2022-12-24T07:41:18.468Z,96013.50
2022-12-24T07:43:46.049Z,96003.47
2022-12-24T07:46:14.925Z,96004.25
2022-12-24T07:48:42.468Z,95998.78
2022-12-24T07:51:09.943Z,96002.16
2022-12-24T07:53:37.457Z,96012.00
2022-12-24T07:56:09.037Z,96017.19
2022-12-24T07:58:40.049Z,96019.53
2022-12-24T08:01:07.864Z,96021.94
2022-12-24T08:03:36.866Z,96013.00
2022-12-24T08:06:04.613Z,96024.66
2022-12-24T08:08:32.095Z,96024.63
2022-12-24T08:11:02.631Z,96030.81
2022-12-24T08:13:30.590Z,96022.84
2022-12-24T08:15:59.374Z,96029.31
2022-12-24T08:18:27.132Z,96025.34
2022-12-24T08:20:56.028Z,96026.53
2022-12-24T08:23:23.659Z,96035.25
2022-12-24T08:25:51.441Z,96034.22
2022-12-24T08:28:20.910Z,96033.22
2022-12-24T08:30:49.783Z,96029.59
2022-12-24T08:33:17.653Z,96031.28
2022-12-24T08:35:48.955Z,96027.63
2022-12-24T08:38:17.827Z,96024.66
2022-12-24T08:40:47.210Z,96038.88
2022-12-24T08:43:14.680Z,96018.69
2022-12-24T08:45:42.203Z,96032.63
2022-12-24T08:48:10.828Z,96036.84
2022-12-24T08:50:40.662Z,96042.25
2022-12-24T08:53:08.357Z,96062.13
2022-12-24T08:55:37.388Z,96067.88
2022-12-24T08:58:05.266Z,96055.84
2022-12-24T09:00:32.993Z,96065.53
2022-12-24T09:03:00.648Z,96067.63
2022-12-24T09:05:29.056Z,96070.63
2022-12-24T09:07:56.604Z,96085.50
2022-12-24T09:10:24.507Z,96089.47
2022-12-24T09:12:53.310Z,96096.63
2022-12-24T09:15:20.790Z,96108.66
2022-12-24T09:17:48.340Z,96105.91
2022-12-24T09:20:17.593Z,96113.84
2022-12-24T09:22:45.146Z,96108.03
2022-12-24T09:25:12.632Z,96112.56
2022-12-24T09:27:40.176Z,96111.19
2022-12-24T09:30:10.774Z,96113.31
2022-12-24T09:32:38.304Z,96108.34
2022-12-24T09:35:06.899Z,96120.47
2022-12-24T09:37:34.374Z,96118.72
2022-12-24T09:40:01.858Z,96111.41
2022-12-24T09:42:40.901Z,96125.34
2022-12-24T09:45:17.621Z,96132.06
2022-12-24T09:47:49.697Z,96133.31
2022-12-24T09:50:35.136Z,96129.09
2022-12-24T09:53:07.841Z,96135.34
2022-12-24T09:55:39.095Z,96143.69
2022-12-24T09:58:11.780Z,96133.72
2022-12-24T10:00:46.043Z,96136.91
2022-12-24T10:03:18.550Z,96134.66
2022-12-24T10:05:55.253Z,96129.84
2022-12-24T10:08:32.382Z,96125.16
2022-12-24T10:11:03.967Z,96135.78
2022-12-24T10:13:42.806Z,96127.16
2022-12-24T10:16:21.245Z,96129.50
2022-12-24T10:18:58.012Z,96129.78
2022-12-24T10:21:35.472Z,96134.78
2022-12-24T10:24:08.648Z,96130.16
2022-12-24T10:26:44.655Z,96121.53
2022-12-24T10:29:17.879Z,96129.47
2022-12-24T10:31:56.880Z,96128.50
2022-12-24T10:34:26.014Z,96130.50
2022-12-24T10:36:53.513Z,96150.53
2022-12-24T10:39:25.096Z,96144.38
2022-12-24T10:41:55.319Z,96135.09
2022-12-24T10:44:28.230Z,96136.06
2022-12-24T10:46:57.299Z,96130.00
2022-12-24T10:49:32.906Z,96141.16
2022-12-24T10:52:05.205Z,96132.28
2022-12-24T10:54:39.084Z,96139.31
2022-12-24T10:57:24.067Z,96138.34
2022-12-24T10:59:54.744Z,96127.22
2022-12-24T11:02:31.857Z,96123.75
2022-12-24T11:05:00.610Z,96126.84
2022-12-24T11:07:30.101Z,96126.50
2022-12-24T11:09:59.279Z,96141.25
2022-12-24T11:12:28.841Z,96146.19
2022-12-24T11:15:05.211Z,96146.72
2022-12-24T11:17:34.946Z,96124.78
2022-12-24T11:20:04.008Z,96146.94
2022-12-24T11:22:33.623Z,96141.53
2022-12-24T11:25:06.820Z,96139.66
2022-12-24T11:27:41.615Z,96136.38
2022-12-24T11:30:24.237Z,96137.34
2022-12-24T11:33:18.057Z,96129.22
2022-12-24T11:35:49.764Z,96138.09
2022-12-24T11:38:22.016Z,96130.06
2022-12-24T11:40:52.030Z,96133.75
2022-12-24T11:43:21.537Z,96128.59
2022-12-24T11:45:51.328Z,96127.81
2022-12-24T11:48:29.032Z,96119.94
2022-12-24T11:50:58.540Z,96132.28
2022-12-24T11:53:31.321Z,96121.69
2022-12-24T11:56:02.009Z,96109.88
2022-12-24T11:58:37.127Z,96113.47
2022-12-24T12:01:16.194Z,96107.28
2022-12-24T12:03:49.358Z,96109.97
2022-12-24T12:06:27.006Z,96117.22
2022-12-24T12:08:58.584Z,96121.69
2022-12-24T12:11:28.333Z,96119.97
2022-12-24T12:14:00.223Z,96128.50
2022-12-24T12:16:53.369Z,96124.41
2022-12-24T12:19:25.517Z,96140.63
2022-12-24T12:21:53.578Z,96137.19
2022-12-24T12:24:31.804Z,96141.75
2022-12-24T12:27:10.109Z,96145.00
2022-12-24T12:29:43.518Z,96145.34
2022-12-24T12:32:22.343Z,96146.91
2022-12-24T12:35:01.482Z,96141.97
2022-12-24T12:37:34.782Z,96148.94
2022-12-24T12:40:02.661Z,96135.91
2022-12-24T12:42:33.343Z,96139.84
2022-12-24T12:45:17.795Z,96143.31
2022-12-24T12:47:59.166Z,96144.94
2022-12-24T12:50:34.359Z,96140.66
2022-12-24T12:53:23.107Z,96139.63
2022-12-24T12:55:57.925Z,96137.94
2022-12-24T12:58:31.798Z,96136.03
2022-12-24T13:01:03.830Z,96149.50
2022-12-24T13:04:05.330Z,96151.25
2022-12-24T13:07:24.149Z,96161.22
2022-12-24T13:10:10.178Z,96151.56
2022-12-24T13:12:57.896Z,96163.78
2022-12-24T13:15:50.897Z,96152.91
2022-12-24T13:18:45.018Z,96159.06
2022-12-24T13:21:18.077Z,96161.75
2022-12-24T13:23:47.034Z,96166.88
2022-12-24T13:26:16.092Z,96172.69
2022-12-24T13:28:44.183Z,96176.50
2022-12-24T13:31:30.613Z,96167.22
2022-12-24T13:34:00.782Z,96176.50
2022-12-24T13:37:07.305Z,96181.63
2022-12-24T13:40:17.346Z,96182.88
2022-12-24T13:43:06.673Z,96184.38
2022-12-24T13:45:45.483Z,96190.13
2022-12-24T13:48:29.392Z,96190.78
2022-12-24T13:50:59.914Z,96197.06
2022-12-24T13:53:32.384Z,96206.50
2022-12-24T13:56:07.480Z,96198.66
2022-12-24T13:58:37.302Z,96198.44
2022-12-24T14:01:09.810Z,96195.78
2022-12-24T14:03:43.174Z,96197.91
2022-12-24T14:06:14.759Z,96210.72
2022-12-24T14:08:44.512Z,96209.09
2022-12-24T14:11:16.571Z,96204.41
2022-12-24T14:14:12.531Z,96205.75
2022-12-24T14:16:46.948Z,96205.47
2022-12-24T14:19:17.192Z,96216.72
2022-12-24T14:21:52.802Z,96217.38
2022-12-24T14:24:24.780Z,96227.34
2022-12-24T14:26:57.927Z,96223.16
2022-12-24T14:29:29.717Z,96226.59
2022-12-24T14:31:59.854Z,96224.00
2022-12-24T14:34:28.618Z,96222.03
2022-12-24T14:36:57.224Z,96222.34
2022-12-24T14:39:29.325Z,96219.22
2022-12-24T14:42:11.683Z,96224.34
2022-12-24T14:44:49.755Z,96220.50
2022-12-24T14:47:28.202Z,96242.31
2022-12-24T14:50:19.814Z,96235.00
2022-12-24T14:53:08.215Z,96246.63
2022-12-24T14:55:42.160Z,96247.78
2022-12-24T14:58:37.292Z,96243.94
2022-12-24T15:01:20.355Z,96257.56
2022-12-24T15:04:01.327Z,96262.47
2022-12-24T15:06:30.076Z,96264.56
2022-12-24T15:08:57.605Z,96262.72
2022-12-24T15:11:25.868Z,96257.72
2022-12-24T15:13:57.420Z,96261.47
2022-12-24T15:16:28.116Z,96263.41
2022-12-24T15:18:59.648Z,96257.56
2022-12-24T15:21:30.484Z,96257.25
2022-12-24T15:23:58.770Z,96262.56
2022-12-24T15:26:29.178Z,96254.75
2022-12-24T15:29:03.365Z,96265.06
2022-12-24T15:31:32.340Z,96258.25
2022-12-24T15:34:00.736Z,96264.88
2022-12-24T15:36:31.676Z,96260.81
2022-12-24T15:39:01.689Z,96260.19
2022-12-24T15:41:33.741Z,96267.31
2022-12-24T15:44:04.535Z,96269.03
2022-12-24T15:46:33.638Z,96264.28
2022-12-24T15:49:03.751Z,96258.88
2022-12-24T15:51:34.253Z,96263.31
2022-12-24T15:54:13.872Z,96265.91
2022-12-24T15:56:44.043Z,96274.63
2022-12-24T15:59:24.053Z,96274.50
2022-12-24T16:01:51.664Z,96268.38
2022-12-24T16:04:25.191Z,96274.59
2022-12-24T16:06:57.079Z,96271.34
2022-12-24T16:09:32.081Z,96273.09
2022-12-24T16:12:03.456Z,96274.00
2022-12-24T16:14:34.529Z,96268.72
2022-12-24T16:17:02.036Z,96272.97
2022-12-24T16:19:39.715Z,96276.06
2022-12-24T16:22:22.392Z,96278.78
2022-12-24T16:24:52.074Z,96284.41
2022-12-24T16:27:19.591Z,96299.91
2022-12-24T16:29:48.420Z,96300.06
2022-12-24T16:32:30.522Z,96306.59
2022-12-24T16:34:58.133Z,96313.06
2022-12-24T16:37:25.668Z,96315.00
2022-12-24T16:39:53.609Z,96313.06
2022-12-24T16:42:38.849Z,96325.22
2022-12-24T16:45:10.248Z,96322.38
2022-12-24T16:47:42.800Z,96322.31
2022-12-24T16:50:17.129Z,96326.53
2022-12-24T16:52:44.706Z,96325.28
2022-12-24T16:55:14.577Z,96335.38
2022-12-24T16:57:43.435Z,96342.19
2022-12-24T17:00:18.021Z,96343.66
2022-12-24T17:02:45.674Z,96348.53
2022-12-24T17:05:13.957Z,96349.66
2022-12-24T17:07:43.997Z,96333.75
2022-12-24T17:10:12.882Z,96343.22
2022-12-24T17:12:40.477Z,96350.56
2022-12-24T17:15:08.869Z,96347.25
2022-12-24T17:17:37.827Z,96350.81
2022-12-24T17:20:06.986Z,96361.59
2022-12-24T17:22:34.490Z,96357.22
2022-12-24T17:25:02.013Z,96354.28
2022-12-24T17:27:29.746Z,96355.81
2022-12-24T17:29:57.239Z,96353.34
2022-12-24T17:32:25.952Z,96349.88
2022-12-24T17:34:54.915Z,96358.69
2022-12-24T17:37:22.657Z,96362.28
2022-12-24T17:39:50.137Z,96357.31
2022-12-24T17:42:17.639Z,96357.16
2022-12-24T17:44:45.156Z,96359.00
2022-12-24T17:47:12.639Z,96355.84
2022-12-24T17:49:40.181Z,96348.06
2022-12-24T17:52:08.984Z,96354.03
2022-12-24T17:54:36.490Z,96349.84
2022-12-24T17:57:04.069Z,96354.00
2022-12-24T17:59:32.065Z,96358.41
2022-12-24T18:01:59.744Z,96365.84
2022-12-24T18:04:27.338Z,96362.66
2022-12-24T18:07:01.672Z,96362.25
2022-12-24T18:09:31.481Z,96352.00
2022-12-24T18:11:58.958Z,96362.59
2022-12-24T18:14:26.461Z,96371.06
2022-12-24T18:16:53.981Z,96367.50
2022-12-24T18:19:21.438Z,96378.88
2022-12-24T18:21:48.932Z,96371.69
2022-12-24T18:24:16.457Z,96371.81
2022-12-24T18:26:46.458Z,96372.16
2022-12-24T18:29:14.089Z,96369.28
2022-12-24T18:31:42.145Z,96386.34
2022-12-24T18:34:13.619Z,96389.72
2022-12-24T18:36:41.359Z,96384.13
2022-12-24T18:39:09.221Z,96394.28
2022-12-24T18:41:36.757Z,96393.03
2022-12-24T18:44:05.822Z,96403.16
2022-12-24T18:46:34.502Z,96392.34
2022-12-24T18:49:02.858Z,96396.38
2022-12-24T18:51:34.221Z,96398.63
2022-12-24T18:54:02.647Z,96400.44
2022-12-24T18:56:30.615Z,96404.38
2022-12-24T18:58:59.659Z,96410.50
2022-12-24T19:01:30.593Z,96415.47
2022-12-24T19:03:58.382Z,96420.72
2022-12-24T19:06:26.429Z,96417.22
2022-12-24T19:08:56.893Z,96410.94
2022-12-24T19:11:26.209Z,96407.88
2022-12-24T19:13:53.837Z,96408.66
2022-12-24T19:16:22.150Z,96402.69
2022-12-24T19:18:51.132Z,96408.09
2022-12-24T19:21:19.176Z,96410.81
2022-12-24T19:23:48.043Z,96422.97
2022-12-24T19:26:17.955Z,96426.63
2022-12-24T19:28:45.793Z,96424.72
2022-12-24T19:31:15.839Z,96421.34
2022-12-24T19:33:45.250Z,96419.81
2022-12-24T19:36:16.178Z,96411.31
2022-12-24T19:38:44.027Z,96410.84
2022-12-24T19:41:13.880Z,96409.41
2022-12-24T19:43:43.492Z,96411.56
2022-12-24T19:46:12.394Z,96406.28
2022-12-24T19:48:40.111Z,96408.28
2022-12-24T19:51:10.247Z,96395.47
2022-12-24T19:53:39.606Z,96394.22
2022-12-24T19:56:08.624Z,96393.56
2022-12-24T19:58:36.756Z,96392.63
2022-12-24T20:01:14.450Z,96404.88
2022-12-24T20:03:43.207Z,96401.13
2022-12-24T20:06:10.999Z,96409.50
2022-12-24T20:08:40.333Z,96406.91
2022-12-24T20:11:09.144Z,96409.03
2022-12-24T20:13:38.304Z,96413.69
2022-12-24T20:16:07.356Z,96411.84
2022-12-24T20:18:35.215Z,96405.13
2022-12-24T20:21:04.142Z,96413.75
2022-12-24T20:23:31.818Z,96439.38
2022-12-24T20:26:02.292Z,96437.44
2022-12-24T20:28:32.529Z,96445.44
2022-12-24T20:31:00.195Z,96438.88
2022-12-24T20:33:28.034Z,96441.00
2022-12-24T20:35:56.125Z,96439.16
2022-12-24T20:38:23.610Z,96442.09
2022-12-24T20:40:51.322Z,96434.09
2022-12-24T20:43:24.197Z,96440.91
2022-12-24T20:45:53.548Z,96438.78
2022-12-24T20:48:21.150Z,96445.38
2022-12-24T20:50:48.654Z,96450.34
2022-12-24T20:53:19.196Z,96456.56
2022-12-24T20:55:47.979Z,96444.69
2022-12-24T20:58:17.927Z,96443.34
2022-12-24T21:00:47.078Z,96444.00
2022-12-24T21:03:15.256Z,96447.03
2022-12-24T21:05:43.475Z,96458.00
2022-12-24T21:08:12.233Z,96450.94
2022-12-24T21:10:40.489Z,96448.19
2022-12-24T21:13:07.903Z,96438.22
2022-12-24T21:15:38.838Z,96444.84
2022-12-24T21:18:11.592Z,96449.72
2022-12-24T21:20:40.194Z,96442.47
2022-12-24T21:23:07.758Z,96452.78
2022-12-24T21:25:36.687Z,96450.00
2022-12-24T21:28:04.287Z,96453.78
2022-12-24T21:30:32.130Z,96455.13
2022-12-24T21:32:59.649Z,96451.88
2022-12-24T21:35:28.503Z,96457.38
2022-12-24T21:37:56.002Z,96453.78
2022-12-24T21:40:23.533Z,96455.59
2022-12-24T21:42:51.020Z,96462.53
2022-12-24T21:45:19.738Z,96462.38
2022-12-24T21:47:47.241Z,96470.81
2022-12-24T21:50:32.695Z,96467.03
2022-12-24T21:53:15.475Z,96471.63
2022-12-24T21:55:42.981Z,96474.59
2022-12-24T21:58:09.548Z,96471.72
2022-12-24T22:00:37.075Z,96460.81
2022-12-24T22:03:04.790Z,96447.59
2022-12-24T22:05:34.549Z,96455.72
2022-12-24T22:08:21.164Z,96467.00
2022-12-24T22:11:06.217Z,96459.97
2022-12-24T22:13:33.732Z,96454.91
2022-12-24T22:16:01.227Z,96450.69
2022-12-24T22:18:28.729Z,96458.63
2022-12-24T22:20:56.447Z,96455.94
2022-12-24T22:23:25.275Z,96463.09
2022-12-24T22:25:52.917Z,96463.25
2022-12-24T22:28:20.478Z,96453.41
2022-12-24T22:30:48.029Z,96447.13
2022-12-24T22:33:15.570Z,96451.44
2022-12-24T22:35:43.179Z,96457.94
2022-12-24T22:38:11.467Z,96458.19
2022-12-24T22:40:41.464Z,96467.78
2022-12-24T22:43:08.965Z,96458.22
2022-12-24T22:45:36.481Z,96456.59
2022-12-24T22:48:04.008Z,96445.31
2022-12-24T22:50:31.528Z,96445.50
2022-12-24T22:52:59.113Z,96436.88
2022-12-24T22:55:26.636Z,96433.88
2022-12-24T22:57:55.452Z,96441.69
2022-12-24T23:00:39.323Z,96447.81
2022-12-24T23:03:07.635Z,96450.97
2022-12-24T23:05:35.370Z,96438.88
2022-12-24T23:08:03.467Z,96447.81
2022-12-24T23:10:30.983Z,96454.22
2022-12-24T23:13:17.678Z,96453.13
2022-12-24T23:15:45.244Z,96452.94
2022-12-24T23:18:13.622Z,96448.88
2022-12-24T23:20:43.106Z,96454.91
2022-12-24T23:23:10.632Z,96445.84
2022-12-24T23:25:38.225Z,96455.28
2022-12-24T23:28:07.286Z,96454.47
2022-12-24T23:30:34.828Z,96445.38
2022-12-24T23:33:02.509Z,96449.75
2022-12-24T23:35:30.009Z,96439.63
2022-12-24T23:37:57.612Z,96446.38
2022-12-24T23:40:25.704Z,96457.78
2022-12-24T23:42:53.196Z,96450.72
2022-12-24T23:45:22.055Z,96463.31
2022-12-24T23:47:49.543Z,96464.63
2022-12-24T23:50:17.109Z,96459.75
2022-12-24T23:52:44.607Z,96461.66
2022-12-24T23:55:12.119Z,96473.97
2022-12-24T23:57:39.614Z,96470.94
